sensor_id;sensor_type;location;lat;lon;timestamp;pressure;altitude;pressure_sealevel;temperature;humidity
6833;BME280;3454;42.654;23.378;2022-12-08T00:00:33;94264.16;;;5.02;100.00
6833;BME280;3454;42.654;23.378;2022-12-08T00:02:59;94267.59;;;4.89;100.00
6833;BME280;3454;42.654;23.378;2022-12-08T00:05:24;94270.63;;;4.45;100.00
6833;BME280;3454;42.654;23.378;2022-12-08T00:08:08;94269.66;;;4.71;100.00
6833;BME280;3454;42.654;23.378;2022-12-08T00:10:52;94283.59;;;4.64;100.00
6833;BME280;3454;42.654;23.378;2022-12-08T00:13:18;94292.25;;;4.60;100.00
6833;BME280;3454;42.654;23.378;2022-12-08T00:15:43;94300.75;;;4.21;100.00
6833;BME280;3454;42.654;23.378;2022-12-08T00:18:08;94302.53;;;4.07;100.00
6833;BME280;3454;42.654;23.378;2022-12-08T00:20:33;94303.53;;;4.04;100.00
6833;BME280;3454;42.654;23.378;2022-12-08T00:22:59;94301.53;;;4.35;100.00
6833;BME280;3454;42.654;23.378;2022-12-08T00:25:24;94314.00;;;4.61;100.00
6833;BME280;3454;42.654;23.378;2022-12-08T00:27:49;94319.72;;;4.76;100.00
6833;BME280;3454;42.654;23.378;2022-12-08T00:30:14;94310.59;;;4.62;100.00
6833;BME280;3454;42.654;23.378;2022-12-08T00:32:40;94310.16;;;4.68;100.00
6833;BME280;3454;42.654;23.378;2022-12-08T00:35:05;94313.44;;;4.81;100.00
6833;BME280;3454;42.654;23.378;2022-12-08T00:37:30;94300.16;;;4.79;100.00
6833;BME280;3454;42.654;23.378;2022-12-08T00:39:56;94309.97;;;4.95;100.00
6833;BME280;3454;42.654;23.378;2022-12-08T00:42:21;94329.88;;;5.23;100.00
6833;BME280;3454;42.654;23.378;2022-12-08T00:44:46;94333.88;;;5.26;100.00
6833;BME280;3454;42.654;23.378;2022-12-08T00:47:12;94318.25;;;4.97;100.00
6833;BME280;3454;42.654;23.378;2022-12-08T00:49:37;94305.56;;;4.37;100.00
6833;BME280;3454;42.654;23.378;2022-12-08T00:52:03;94321.84;;;4.69;100.00
6833;BME280;3454;42.654;23.378;2022-12-08T00:54:28;94323.81;;;4.77;100.00
6833;BME280;3454;42.654;23.378;2022-12-08T00:56:53;94307.66;;;4.43;100.00
6833;BME280;3454;42.654;23.378;2022-12-08T00:59:19;94321.47;;;4.50;100.00
6833;BME280;3454;42.654;23.378;2022-12-08T01:01:44;94330.31;;;4.68;100.00
6833;BME280;3454;42.654;23.378;2022-12-08T01:04:11;94316.72;;;4.58;100.00
6833;BME280;3454;42.654;23.378;2022-12-08T01:06:36;94313.69;;;4.53;100.00
6833;BME280;3454;42.654;23.378;2022-12-08T01:09:02;94312.41;;;4.60;100.00
6833;BME280;3454;42.654;23.378;2022-12-08T01:11:28;94305.84;;;4.70;100.00
6833;BME280;3454;42.654;23.378;2022-12-08T01:13:53;94321.41;;;4.88;100.00
6833;BME280;3454;42.654;23.378;2022-12-08T01:16:20;94316.22;;;4.66;100.00
6833;BME280;3454;42.654;23.378;2022-12-08T01:18:45;94312.22;;;4.38;100.00
6833;BME280;3454;42.654;23.378;2022-12-08T01:21:11;94317.81;;;4.67;100.00
6833;BME280;3454;42.654;23.378;2022-12-08T01:23:36;94320.59;;;4.75;100.00
6833;BME280;3454;42.654;23.378;2022-12-08T01:26:05;94319.91;;;4.73;100.00
6833;BME280;3454;42.654;23.378;2022-12-08T01:28:31;94316.78;;;4.82;100.00
6833;BME280;3454;42.654;23.378;2022-12-08T01:30:57;94317.94;;;5.01;100.00
6833;BME280;3454;42.654;23.378;2022-12-08T01:33:22;94319.59;;;5.13;100.00
6833;BME280;3454;42.654;23.378;2022-12-08T01:35:48;94319.72;;;5.12;100.00
6833;BME280;3454;42.654;23.378;2022-12-08T01:38:13;94309.53;;;4.77;100.00
6833;BME280;3454;42.654;23.378;2022-12-08T01:40:38;94306.03;;;4.67;100.00
6833;BME280;3454;42.654;23.378;2022-12-08T01:43:04;94295.84;;;4.69;100.00
6833;BME280;3454;42.654;23.378;2022-12-08T01:45:30;94298.06;;;4.73;100.00
6833;BME280;3454;42.654;23.378;2022-12-08T01:48:01;94305.00;;;4.82;100.00
6833;BME280;3454;42.654;23.378;2022-12-08T01:50:28;94294.16;;;4.93;100.00
6833;BME280;3454;42.654;23.378;2022-12-08T01:52:58;94290.97;;;4.91;100.00
6833;BME280;3454;42.654;23.378;2022-12-08T01:55:27;94277.34;;;4.70;100.00
6833;BME280;3454;42.654;23.378;2022-12-08T01:57:55;94277.94;;;4.61;100.00
6833;BME280;3454;42.654;23.378;2022-12-08T02:00:23;94278.16;;;4.70;100.00
6833;BME280;3454;42.654;23.378;2022-12-08T02:05:20;94276.66;;;4.91;100.00
6833;BME280;3454;42.654;23.378;2022-12-08T02:07:46;94266.13;;;4.86;100.00
6833;BME280;3454;42.654;23.378;2022-12-08T02:10:13;94270.19;;;5.00;100.00
6833;BME280;3454;42.654;23.378;2022-12-08T02:12:40;94273.53;;;5.00;100.00
6833;BME280;3454;42.654;23.378;2022-12-08T02:15:06;94275.00;;;5.03;100.00
6833;BME280;3454;42.654;23.378;2022-12-08T02:25:33;94279.41;;;4.88;100.00
6833;BME280;3454;42.654;23.378;2022-12-08T02:40:43;94283.59;;;5.00;100.00
6833;BME280;3454;42.654;23.378;2022-12-08T02:43:25;94280.28;;;4.87;100.00
6833;BME280;3454;42.654;23.378;2022-12-08T02:45:53;94286.75;;;4.79;100.00
6833;BME280;3454;42.654;23.378;2022-12-08T02:48:21;94258.97;;;4.80;100.00
6833;BME280;3454;42.654;23.378;2022-12-08T02:50:46;94260.16;;;4.87;100.00
6833;BME280;3454;42.654;23.378;2022-12-08T02:53:11;94254.25;;;4.76;100.00
6833;BME280;3454;42.654;23.378;2022-12-08T02:55:53;94256.50;;;4.55;100.00
6833;BME280;3454;42.654;23.378;2022-12-08T02:58:34;94262.25;;;4.57;100.00
6833;BME280;3454;42.654;23.378;2022-12-08T03:01:17;94261.56;;;4.55;100.00
6833;BME280;3454;42.654;23.378;2022-12-08T03:08:50;94279.38;;;4.52;100.00
6833;BME280;3454;42.654;23.378;2022-12-08T03:11:27;94276.06;;;4.39;100.00
6833;BME280;3454;42.654;23.378;2022-12-08T03:13:55;94270.22;;;4.39;100.00
6833;BME280;3454;42.654;23.378;2022-12-08T03:16:23;94271.75;;;4.41;100.00
6833;BME280;3454;42.654;23.378;2022-12-08T03:18:55;94275.88;;;4.42;100.00
6833;BME280;3454;42.654;23.378;2022-12-08T03:21:23;94271.31;;;4.47;100.00
6833;BME280;3454;42.654;23.378;2022-12-08T03:23:50;94268.53;;;4.75;100.00
6833;BME280;3454;42.654;23.378;2022-12-08T03:27:04;94278.16;;;4.70;100.00
6833;BME280;3454;42.654;23.378;2022-12-08T03:29:03;94261.44;;;4.57;100.00
6833;BME280;3454;42.654;23.378;2022-12-08T03:31:30;94260.41;;;4.72;100.00
6833;BME280;3454;42.654;23.378;2022-12-08T03:33:58;94267.38;;;4.68;100.00
6833;BME280;3454;42.654;23.378;2022-12-08T03:36:24;94275.81;;;4.67;100.00
6833;BME280;3454;42.654;23.378;2022-12-08T03:38:51;94257.44;;;4.54;100.00
6833;BME280;3454;42.654;23.378;2022-12-08T03:41:17;94258.63;;;4.49;100.00
6833;BME280;3454;42.654;23.378;2022-12-08T03:43:42;94268.63;;;4.50;100.00
6833;BME280;3454;42.654;23.378;2022-12-08T03:46:07;94273.25;;;4.56;100.00
6833;BME280;3454;42.654;23.378;2022-12-08T03:48:33;94258.22;;;4.55;100.00
6833;BME280;3454;42.654;23.378;2022-12-08T03:50:58;94257.63;;;4.51;100.00
6833;BME280;3454;42.654;23.378;2022-12-08T03:53:23;94266.88;;;4.63;100.00
6833;BME280;3454;42.654;23.378;2022-12-08T03:55:48;94279.53;;;4.74;100.00
6833;BME280;3454;42.654;23.378;2022-12-08T03:58:14;94277.03;;;4.74;100.00
6833;BME280;3454;42.654;23.378;2022-12-08T04:00:39;94274.97;;;4.79;100.00
6833;BME280;3454;42.654;23.378;2022-12-08T04:03:04;94276.66;;;4.91;100.00
6833;BME280;3454;42.654;23.378;2022-12-08T04:05:30;94287.22;;;4.96;100.00
6833;BME280;3454;42.654;23.378;2022-12-08T04:07:56;94284.38;;;5.01;100.00
6833;BME280;3454;42.654;23.378;2022-12-08T04:10:21;94287.50;;;5.04;100.00
6833;BME280;3454;42.654;23.378;2022-12-08T04:12:46;94295.34;;;5.13;100.00
6833;BME280;3454;42.654;23.378;2022-12-08T04:15:11;94284.91;;;4.93;100.00
6833;BME280;3454;42.654;23.378;2022-12-08T04:17:37;94287.00;;;4.99;100.00
6833;BME280;3454;42.654;23.378;2022-12-08T04:20:02;94288.53;;;5.02;100.00
6833;BME280;3454;42.654;23.378;2022-12-08T04:22:27;94290.31;;;5.13;100.00
6833;BME280;3454;42.654;23.378;2022-12-08T04:24:53;94286.69;;;5.04;100.00
6833;BME280;3454;42.654;23.378;2022-12-08T04:27:18;94285.06;;;5.03;100.00
6833;BME280;3454;42.654;23.378;2022-12-08T04:29:43;94290.50;;;5.09;100.00
6833;BME280;3454;42.654;23.378;2022-12-08T04:32:08;94283.25;;;5.05;100.00
6833;BME280;3454;42.654;23.378;2022-12-08T04:34:34;94282.91;;;4.98;100.00
6833;BME280;3454;42.654;23.378;2022-12-08T04:36:59;94301.13;;;5.02;100.00
6833;BME280;3454;42.654;23.378;2022-12-08T04:39:24;94297.72;;;4.90;100.00
6833;BME280;3454;42.654;23.378;2022-12-08T04:41:49;94283.09;;;4.59;100.00
6833;BME280;3454;42.654;23.378;2022-12-08T04:44:15;94289.19;;;4.80;100.00
6833;BME280;3454;42.654;23.378;2022-12-08T04:46:40;94283.63;;;4.88;100.00
6833;BME280;3454;42.654;23.378;2022-12-08T04:49:05;94279.00;;;4.82;100.00
6833;BME280;3454;42.654;23.378;2022-12-08T04:51:30;94282.69;;;4.89;100.00
6833;BME280;3454;42.654;23.378;2022-12-08T04:53:56;94292.47;;;4.93;100.00
6833;BME280;3454;42.654;23.378;2022-12-08T04:56:21;94288.94;;;4.96;100.00
6833;BME280;3454;42.654;23.378;2022-12-08T04:58:46;94288.53;;;5.02;100.00
6833;BME280;3454;42.654;23.378;2022-12-08T05:01:12;94303.78;;;5.11;100.00
6833;BME280;3454;42.654;23.378;2022-12-08T05:03:37;94295.50;;;4.98;100.00
6833;BME280;3454;42.654;23.378;2022-12-08T05:06:02;94299.53;;;4.88;100.00
6833;BME280;3454;42.654;23.378;2022-12-08T05:08:28;94297.34;;;5.07;100.00
6833;BME280;3454;42.654;23.378;2022-12-08T05:10:55;94297.19;;;4.98;100.00
6833;BME280;3454;42.654;23.378;2022-12-08T05:13:25;94300.03;;;4.93;100.00
6833;BME280;3454;42.654;23.378;2022-12-08T05:15:50;94294.53;;;5.12;100.00
6833;BME280;3454;42.654;23.378;2022-12-08T05:18:15;94306.97;;;5.26;100.00
6833;BME280;3454;42.654;23.378;2022-12-08T05:20:41;94302.91;;;5.13;100.00
6833;BME280;3454;42.654;23.378;2022-12-08T05:23:06;94307.13;;;5.12;100.00
6833;BME280;3454;42.654;23.378;2022-12-08T05:25:31;94307.91;;;5.25;100.00
6833;BME280;3454;42.654;23.378;2022-12-08T05:27:57;94322.09;;;5.50;100.00
6833;BME280;3454;42.654;23.378;2022-12-08T05:30:22;94310.75;;;7.13;100.00
6833;BME280;3454;42.654;23.378;2022-12-08T05:32:47;94298.72;;;7.48;100.00
6833;BME280;3454;42.654;23.378;2022-12-08T05:35:19;94325.94;;;6.47;100.00
6833;BME280;3454;42.654;23.378;2022-12-08T05:37:50;94345.47;;;6.56;100.00
6833;BME280;3454;42.654;23.378;2022-12-08T05:40:17;94358.50;;;5.46;100.00
6833;BME280;3454;42.654;23.378;2022-12-08T05:42:43;94326.31;;;5.26;100.00
6833;BME280;3454;42.654;23.378;2022-12-08T05:45:09;94317.81;;;5.39;100.00
6833;BME280;3454;42.654;23.378;2022-12-08T05:47:34;94356.66;;;5.48;100.00
6833;BME280;3454;42.654;23.378;2022-12-08T05:49:59;94343.28;;;5.47;100.00
6833;BME280;3454;42.654;23.378;2022-12-08T05:52:25;94326.31;;;5.26;100.00
6833;BME280;3454;42.654;23.378;2022-12-08T05:54:50;94336.78;;;5.32;100.00
6833;BME280;3454;42.654;23.378;2022-12-08T05:57:16;94337.75;;;5.42;100.00
6833;BME280;3454;42.654;23.378;2022-12-08T05:59:41;94321.41;;;4.88;100.00
6833;BME280;3454;42.654;23.378;2022-12-08T06:02:07;94330.06;;;4.84;100.00
6833;BME280;3454;42.654;23.378;2022-12-08T06:04:33;94332.84;;;5.04;100.00
6833;BME280;3454;42.654;23.378;2022-12-08T06:06:58;94314.50;;;4.66;100.00
6833;BME280;3454;42.654;23.378;2022-12-08T06:09:24;94315.22;;;4.56;100.00
6833;BME280;3454;42.654;23.378;2022-12-08T06:11:49;94342.53;;;4.98;100.00
6833;BME280;3454;42.654;23.378;2022-12-08T06:14:14;94320.56;;;4.26;100.00
6833;BME280;3454;42.654;23.378;2022-12-08T06:16:40;94326.25;;;3.90;100.00
6833;BME280;3454;42.654;23.378;2022-12-08T06:19:06;94335.84;;;5.09;100.00
6833;BME280;3454;42.654;23.378;2022-12-08T06:21:31;94333.75;;;5.98;100.00
6833;BME280;3454;42.654;23.378;2022-12-08T06:23:57;94353.25;;;4.76;100.00
6833;BME280;3454;42.654;23.378;2022-12-08T06:26:22;94356.59;;;4.52;100.00
6833;BME280;3454;42.654;23.378;2022-12-08T06:28:50;94357.88;;;4.57;100.00
6833;BME280;3454;42.654;23.378;2022-12-08T06:31:19;94358.69;;;4.33;100.00
6833;BME280;3454;42.654;23.378;2022-12-08T06:33:45;94372.84;;;4.96;100.00
6833;BME280;3454;42.654;23.378;2022-12-08T06:36:12;94358.50;;;5.09;100.00
6833;BME280;3454;42.654;23.378;2022-12-08T06:38:38;94374.88;;;5.28;100.00
6833;BME280;3454;42.654;23.378;2022-12-08T06:41:04;94382.16;;;5.56;100.00
6833;BME280;3454;42.654;23.378;2022-12-08T06:43:30;94368.69;;;5.08;100.00
6833;BME280;3454;42.654;23.378;2022-12-08T06:45:56;94378.66;;;5.46;100.00
6833;BME280;3454;42.654;23.378;2022-12-08T06:48:21;94370.34;;;5.56;100.00
6833;BME280;3454;42.654;23.378;2022-12-08T06:50:47;94342.75;;;5.55;100.00
6833;BME280;3454;42.654;23.378;2022-12-08T06:53:14;94360.03;;;5.96;100.00
6833;BME280;3454;42.654;23.378;2022-12-08T06:55:44;94360.66;;;5.63;100.00
6833;BME280;3454;42.654;23.378;2022-12-08T06:58:11;94327.97;;;5.38;100.00
6833;BME280;3454;42.654;23.378;2022-12-08T07:00:37;94353.38;;;5.82;100.00
6833;BME280;3454;42.654;23.378;2022-12-08T07:03:03;94351.28;;;5.76;100.00
6833;BME280;3454;42.654;23.378;2022-12-08T07:05:28;94339.97;;;6.05;100.00
6833;BME280;3454;42.654;23.378;2022-12-08T07:07:53;94360.47;;;6.01;100.00
6833;BME280;3454;42.654;23.378;2022-12-08T07:10:19;94360.47;;;6.01;100.00
6833;BME280;3454;42.654;23.378;2022-12-08T07:12:44;94370.75;;;6.21;100.00
6833;BME280;3454;42.654;23.378;2022-12-08T07:15:10;94387.28;;;6.36;100.00
6833;BME280;3454;42.654;23.378;2022-12-08T07:17:35;94371.78;;;5.48;100.00
6833;BME280;3454;42.654;23.378;2022-12-08T07:20:01;94353.28;;;5.60;100.00
6833;BME280;3454;42.654;23.378;2022-12-08T07:22:26;94369.50;;;5.92;100.00
6833;BME280;3454;42.654;23.378;2022-12-08T07:24:51;94383.38;;;5.74;100.00
6833;BME280;3454;42.654;23.378;2022-12-08T07:27:17;94360.53;;;5.17;100.00
6833;BME280;3454;42.654;23.378;2022-12-08T07:29:42;94378.50;;;5.60;100.00
6833;BME280;3454;42.654;23.378;2022-12-08T07:32:07;94398.13;;;5.44;100.00
6833;BME280;3454;42.654;23.378;2022-12-08T07:34:33;94388.00;;;5.20;100.00
6833;BME280;3454;42.654;23.378;2022-12-08T07:36:58;94387.44;;;5.04;100.00
6833;BME280;3454;42.654;23.378;2022-12-08T07:39:24;94384.56;;;4.60;100.00
6833;BME280;3454;42.654;23.378;2022-12-08T07:41:49;94401.84;;;5.15;100.00
6833;BME280;3454;42.654;23.378;2022-12-08T07:44:15;94399.66;;;5.34;100.00
6833;BME280;3454;42.654;23.378;2022-12-08T07:46:40;94395.47;;;5.22;100.00
6833;BME280;3454;42.654;23.378;2022-12-08T07:49:06;94390.22;;;5.25;100.00
6833;BME280;3454;42.654;23.378;2022-12-08T07:51:31;94391.81;;;5.62;100.00
6833;BME280;3454;42.654;23.378;2022-12-08T07:53:56;94399.72;;;5.57;100.00
6833;BME280;3454;42.654;23.378;2022-12-08T07:56:22;94404.56;;;5.84;100.00
6833;BME280;3454;42.654;23.378;2022-12-08T07:58:48;94400.53;;;5.81;100.00
6833;BME280;3454;42.654;23.378;2022-12-08T08:01:32;94388.06;;;5.67;100.00
6833;BME280;3454;42.654;23.378;2022-12-08T08:03:59;94415.66;;;6.05;100.00
6833;BME280;3454;42.654;23.378;2022-12-08T08:06:29;94410.00;;;6.25;100.00
6833;BME280;3454;42.654;23.378;2022-12-08T08:08:55;94416.94;;;6.45;100.00
6833;BME280;3454;42.654;23.378;2022-12-08T08:11:21;94436.94;;;6.48;100.00
6833;BME280;3454;42.654;23.378;2022-12-08T08:13:47;94423.94;;;6.42;100.00
6833;BME280;3454;42.654;23.378;2022-12-08T08:16:12;94436.31;;;6.34;100.00
6833;BME280;3454;42.654;23.378;2022-12-08T08:18:38;94409.03;;;6.15;100.00
6833;BME280;3454;42.654;23.378;2022-12-08T08:21:04;94405.75;;;6.26;100.00
6833;BME280;3454;42.654;23.378;2022-12-08T08:23:30;94420.66;;;6.29;100.00
6833;BME280;3454;42.654;23.378;2022-12-08T08:26:00;94416.00;;;6.35;100.00
6833;BME280;3454;42.654;23.378;2022-12-08T08:28:26;94411.16;;;6.32;100.00
6833;BME280;3454;42.654;23.378;2022-12-08T08:30:53;94416.31;;;6.31;100.00
6833;BME280;3454;42.654;23.378;2022-12-08T08:33:18;94404.00;;;6.50;100.00
6833;BME280;3454;42.654;23.378;2022-12-08T08:35:44;94437.53;;;6.74;100.00
6833;BME280;3454;42.654;23.378;2022-12-08T08:38:09;94436.97;;;6.82;100.00
6833;BME280;3454;42.654;23.378;2022-12-08T08:40:35;94445.59;;;6.90;100.00
6833;BME280;3454;42.654;23.378;2022-12-08T08:43:01;94426.31;;;7.00;100.00
6833;BME280;3454;42.654;23.378;2022-12-08T08:45:27;94401.63;;;6.70;100.00
6833;BME280;3454;42.654;23.378;2022-12-08T08:47:53;94384.50;;;7.07;100.00
6833;BME280;3454;42.654;23.378;2022-12-08T08:50:18;94398.25;;;7.47;100.00
6833;BME280;3454;42.654;23.378;2022-12-08T08:52:43;94390.66;;;7.90;100.00
6833;BME280;3454;42.654;23.378;2022-12-08T08:55:09;94433.94;;;8.19;100.00
6833;BME280;3454;42.654;23.378;2022-12-08T08:57:35;94453.25;;;8.93;100.00
6833;BME280;3454;42.654;23.378;2022-12-08T09:00:00;94495.75;;;9.51;100.00
6833;BME280;3454;42.654;23.378;2022-12-08T09:02:26;94479.31;;;9.85;100.00
6833;BME280;3454;42.654;23.378;2022-12-08T09:04:51;94465.63;;;10.17;100.00
6833;BME280;3454;42.654;23.378;2022-12-08T09:07:17;94445.03;;;10.67;100.00
6833;BME280;3454;42.654;23.378;2022-12-08T09:09:42;94446.91;;;11.21;100.00
6833;BME280;3454;42.654;23.378;2022-12-08T09:12:08;94620.06;;;11.48;100.00
6833;BME280;3454;42.654;23.378;2022-12-08T09:14:34;94601.41;;;11.57;100.00
6833;BME280;3454;42.654;23.378;2022-12-08T09:16:59;94561.00;;;11.45;100.00
6833;BME280;3454;42.654;23.378;2022-12-08T09:19:24;94472.91;;;11.71;100.00
6833;BME280;3454;42.654;23.378;2022-12-08T09:21:50;94579.00;;;12.17;100.00
6833;BME280;3454;42.654;23.378;2022-12-08T09:24:15;94542.50;;;12.43;100.00
6833;BME280;3454;42.654;23.378;2022-12-08T09:26:42;94585.69;;;12.72;100.00
6833;BME280;3454;42.654;23.378;2022-12-08T09:29:09;94557.69;;;12.80;100.00
6833;BME280;3454;42.654;23.378;2022-12-08T09:31:35;94587.66;;;12.96;100.00
6833;BME280;3454;42.654;23.378;2022-12-08T09:34:00;94523.91;;;13.21;100.00
6833;BME280;3454;42.654;23.378;2022-12-08T09:36:26;94594.53;;;13.30;100.00
6833;BME280;3454;42.654;23.378;2022-12-08T09:38:52;94587.91;;;12.03;100.00
6833;BME280;3454;42.654;23.378;2022-12-08T09:41:35;94523.41;;;12.03;100.00
6833;BME280;3454;42.654;23.378;2022-12-08T09:46:46;94595.28;;;12.33;100.00
6833;BME280;3454;42.654;23.378;2022-12-08T09:49:15;94512.09;;;12.15;100.00
6833;BME280;3454;42.654;23.378;2022-12-08T09:51:43;94552.38;;;12.29;100.00
6833;BME280;3454;42.654;23.378;2022-12-08T09:54:23;94559.94;;;12.65;100.00
6833;BME280;3454;42.654;23.378;2022-12-08T09:56:54;94603.53;;;12.90;100.00
6833;BME280;3454;42.654;23.378;2022-12-08T09:59:24;94574.91;;;12.96;100.00
6833;BME280;3454;42.654;23.378;2022-12-08T10:01:51;94564.84;;;12.94;100.00
6833;BME280;3454;42.654;23.378;2022-12-08T10:04:24;94566.25;;;13.06;100.00
6833;BME280;3454;42.654;23.378;2022-12-08T10:07:45;94545.41;;;13.11;100.00
6833;BME280;3454;42.654;23.378;2022-12-08T10:10:03;94543.31;;;12.79;100.00
6833;BME280;3454;42.654;23.378;2022-12-08T10:12:54;94513.09;;;12.84;100.00
6833;BME280;3454;42.654;23.378;2022-12-08T10:18:29;94491.38;;;12.80;100.00
6833;BME280;3454;42.654;23.378;2022-12-08T10:21:20;94553.56;;;13.40;100.00
6833;BME280;3454;42.654;23.378;2022-12-08T10:23:49;94543.31;;;13.58;100.00
6833;BME280;3454;42.654;23.378;2022-12-08T10:26:19;94616.66;;;13.47;100.00
6833;BME280;3454;42.654;23.378;2022-12-08T10:28:45;94562.53;;;13.18;100.00
6833;BME280;3454;42.654;23.378;2022-12-08T10:31:15;94550.84;;;13.16;100.00
6833;BME280;3454;42.654;23.378;2022-12-08T10:33:41;94506.69;;;12.80;100.00
6833;BME280;3454;42.654;23.378;2022-12-08T10:36:09;94528.31;;;12.58;100.00
6833;BME280;3454;42.654;23.378;2022-12-08T10:38:36;94458.72;;;12.31;100.00
6833;BME280;3454;42.654;23.378;2022-12-08T10:43:31;94529.38;;;12.38;100.00
6833;BME280;3454;42.654;23.378;2022-12-08T10:48:36;94406.38;;;11.84;100.00
6833;BME280;3454;42.654;23.378;2022-12-08T10:51:39;94382.97;;;11.70;100.00
6833;BME280;3454;42.654;23.378;2022-12-08T10:54:27;94385.81;;;11.58;100.00
6833;BME280;3454;42.654;23.378;2022-12-08T10:56:54;94376.31;;;11.33;100.00
6833;BME280;3454;42.654;23.378;2022-12-08T10:59:21;94354.53;;;11.21;100.00
6833;BME280;3454;42.654;23.378;2022-12-08T11:01:48;94351.09;;;11.12;100.00
6833;BME280;3454;42.654;23.378;2022-12-08T11:04:20;94340.25;;;11.10;100.00
6833;BME280;3454;42.654;23.378;2022-12-08T11:06:48;94359.28;;;11.33;100.00
6833;BME280;3454;42.654;23.378;2022-12-08T11:11:51;94314.75;;;11.20;100.00
6833;BME280;3454;42.654;23.378;2022-12-08T11:14:31;94378.97;;;11.41;100.00
6833;BME280;3454;42.654;23.378;2022-12-08T11:20:21;94368.38;;;11.36;100.00
6833;BME280;3454;42.654;23.378;2022-12-08T11:22:54;94325.50;;;11.41;100.00
6833;BME280;3454;42.654;23.378;2022-12-08T11:25:22;94321.50;;;11.38;100.00
6833;BME280;3454;42.654;23.378;2022-12-08T11:27:50;94361.91;;;11.41;100.00
6833;BME280;3454;42.654;23.378;2022-12-08T11:30:19;94313.78;;;11.30;100.00
6833;BME280;3454;42.654;23.378;2022-12-08T11:32:47;94301.41;;;11.35;100.00
6833;BME280;3454;42.654;23.378;2022-12-08T11:35:22;94293.13;;;11.33;100.00
6833;BME280;3454;42.654;23.378;2022-12-08T11:37:48;94299.53;;;11.37;100.00
6833;BME280;3454;42.654;23.378;2022-12-08T11:42:58;94314.63;;;11.21;100.00
6833;BME280;3454;42.654;23.378;2022-12-08T11:45:29;94314.41;;;11.59;100.00
6833;BME280;3454;42.654;23.378;2022-12-08T11:48:16;94350.25;;;11.93;100.00
6833;BME280;3454;42.654;23.378;2022-12-08T11:50:56;94337.94;;;12.06;100.00
6833;BME280;3454;42.654;23.378;2022-12-08T11:56:19;94387.75;;;12.36;100.00
6833;BME280;3454;42.654;23.378;2022-12-08T11:58:50;94337.22;;;12.14;100.00
6833;BME280;3454;42.654;23.378;2022-12-08T12:01:22;94389.28;;;12.11;100.00
6833;BME280;3454;42.654;23.378;2022-12-08T12:04:13;94364.91;;;12.34;100.00
6833;BME280;3454;42.654;23.378;2022-12-08T12:09:31;94328.19;;;11.66;100.00
6833;BME280;3454;42.654;23.378;2022-12-08T12:17:56;94308.53;;;12.12;100.00
6833;BME280;3454;42.654;23.378;2022-12-08T12:20:25;94326.03;;;11.44;100.00
6833;BME280;3454;42.654;23.378;2022-12-08T12:23:03;94292.09;;;11.26;100.00
6833;BME280;3454;42.654;23.378;2022-12-08T12:25:31;94346.38;;;12.07;100.00
6833;BME280;3454;42.654;23.378;2022-12-08T12:28:02;94356.88;;;12.21;100.00
6833;BME280;3454;42.654;23.378;2022-12-08T12:30:48;94362.69;;;12.14;100.00
6833;BME280;3454;42.654;23.378;2022-12-08T12:33:17;94340.88;;;12.37;100.00
6833;BME280;3454;42.654;23.378;2022-12-08T12:35:44;94343.44;;;12.62;100.00
6833;BME280;3454;42.654;23.378;2022-12-08T12:38:50;94365.41;;;12.81;100.00
6833;BME280;3454;42.654;23.378;2022-12-08T12:41:33;94356.59;;;11.89;100.00
6833;BME280;3454;42.654;23.378;2022-12-08T12:46:39;94376.75;;;12.18;100.00
6833;BME280;3454;42.654;23.378;2022-12-08T12:54:34;94291.44;;;11.87;100.00
6833;BME280;3454;42.654;23.378;2022-12-08T13:00:17;94300.97;;;12.45;100.00
6833;BME280;3454;42.654;23.378;2022-12-08T13:05:27;94305.75;;;12.48;100.00
6833;BME280;3454;42.654;23.378;2022-12-08T13:07:55;94305.97;;;12.55;100.00
6833;BME280;3454;42.654;23.378;2022-12-08T13:10:25;94331.84;;;12.42;100.00
6833;BME280;3454;42.654;23.378;2022-12-08T13:18:00;94277.25;;;11.84;100.00
6833;BME280;3454;42.654;23.378;2022-12-08T13:20:26;94306.78;;;11.95;100.00
6833;BME280;3454;42.654;23.378;2022-12-08T13:28:19;94252.66;;;11.93;100.00
6833;BME280;3454;42.654;23.378;2022-12-08T13:38:37;94241.78;;;11.55;100.00
6833;BME280;3454;42.654;23.378;2022-12-08T13:41:12;94233.97;;;11.66;100.00
6833;BME280;3454;42.654;23.378;2022-12-08T13:43:51;94210.47;;;11.37;100.00
6833;BME280;3454;42.654;23.378;2022-12-08T13:46:30;94234.78;;;11.67;100.00
6833;BME280;3454;42.654;23.378;2022-12-08T13:48:59;94263.38;;;11.78;100.00
6833;BME280;3454;42.654;23.378;2022-12-08T13:51:29;94208.34;;;11.50;100.00
6833;BME280;3454;42.654;23.378;2022-12-08T13:54:11;94173.09;;;11.20;100.00
6833;BME280;3454;42.654;23.378;2022-12-08T13:56:40;94211.50;;;11.44;100.00
6833;BME280;3454;42.654;23.378;2022-12-08T13:59:09;94217.81;;;11.40;100.00
6833;BME280;3454;42.654;23.378;2022-12-08T14:01:42;94181.66;;;11.19;100.00
6833;BME280;3454;42.654;23.378;2022-12-08T14:04:13;94191.19;;;11.17;100.00
6833;BME280;3454;42.654;23.378;2022-12-08T14:06:46;94198.84;;;11.35;100.00
6833;BME280;3454;42.654;23.378;2022-12-08T14:09:25;94204.44;;;11.38;100.00
6833;BME280;3454;42.654;23.378;2022-12-08T14:12:02;94184.78;;;11.13;100.00
6833;BME280;3454;42.654;23.378;2022-12-08T14:14:32;94199.19;;;11.22;100.00
6833;BME280;3454;42.654;23.378;2022-12-08T14:17:06;94211.41;;;11.36;100.00
6833;BME280;3454;42.654;23.378;2022-12-08T14:19:33;94173.94;;;10.93;100.00
6833;BME280;3454;42.654;23.378;2022-12-08T14:22:20;94166.97;;;10.95;100.00
6833;BME280;3454;42.654;23.378;2022-12-08T14:24:46;94205.88;;;11.23;100.00
6833;BME280;3454;42.654;23.378;2022-12-08T14:27:17;94210.09;;;11.32;100.00
6833;BME280;3454;42.654;23.378;2022-12-08T14:30:00;94221.66;;;11.27;100.00
6833;BME280;3454;42.654;23.378;2022-12-08T14:32:38;94215.03;;;11.16;100.00
6833;BME280;3454;42.654;23.378;2022-12-08T14:37:40;94217.34;;;11.27;100.00
6833;BME280;3454;42.654;23.378;2022-12-08T14:40:18;94174.84;;;11.02;100.00
6833;BME280;3454;42.654;23.378;2022-12-08T14:42:46;94112.66;;;10.34;100.00
6833;BME280;3454;42.654;23.378;2022-12-08T14:45:14;94134.69;;;10.61;100.00
6833;BME280;3454;42.654;23.378;2022-12-08T14:47:40;94161.50;;;10.73;100.00